• Join FlightAware (Why Join?)
  • Login
  • US Flag 
04:23PM EDT


 

Airport Tracker/Info


-or-


 

Live Flight TrackerFlight Track Log ✈ ASQ4103 ✈ 23-Sep-2013 ✈ KTUS - KIAH

Flight Track Log - Related Links

Times and Time Zones

All times are in EDT time to prevent confusion due to time zone crossing. See the ASQ4103 flight status page for this flight to view local times or setup timezone preferences in your user account.

Time Position Orientation Groundspeed Altitude Reporting Facility
EDT Latitude Longitude Course Direction KTS MPH feet Rate Location/Type
03:32PM 32.0925 -110.9125 134° Southeast 179 206 3,500  Level Albuquerque Center
03:33PM 32.0569 -110.8619 130° Southeast 214 246 5,600 2,220 Climbing Albuquerque Center
03:34PM 32.0489 -110.7886 97° East 226 260 8,000 2,280 Climbing Albuquerque Center
03:35PM 32.0772 -110.4268 77° East  Level Estimated
03:35PM 32.0494 -110.7142 89° East 227 261 10,200  Level Albuquerque Center
03:35PM 32.0475 -110.7058 105° East 235 270 10,400 1,200 Climbing Albuquerque Center
03:36PM 32.0672 -110.2983 77° East  Level Estimated
03:36PM 32.0467 -110.6356 91° East 246 283 11,500  Level Albuquerque Center
03:37PM 32.0570 -110.1699 75° East  Level Estimated
03:37PM 32.0422 -110.5358 93° East 290 334 12,700  Level Albuquerque Center
03:38PM 32.0392 -110.4258 92° East 324 373 13,500 960 Climbing Albuquerque Center
03:39PM 32.0331 -110.2764 93° East 371 427 14,800 1,080 Climbing Albuquerque Center
03:40PM 32.0281 -110.1511 93° East 381 438 15,800 960 Climbing Albuquerque Center
03:41PM 32.0228 -110.0214 93° East 393 452 16,800 960 Climbing Albuquerque Center
03:42PM 32.0142 -109.8864 94° East 409 471 17,800 960 Climbing Albuquerque Center
03:43PM 32.0094 -109.7542 92° East 407 468 18,900 1,020 Climbing Albuquerque Center
03:44PM 32.0044 -109.6206 92° East 409 471 19,900 1,080 Climbing Albuquerque Center
03:45PM 31.9975 -109.4592 93° East 412 474 21,200 1,080 Climbing Albuquerque Center
03:46PM 31.9911 -109.3244 93° East 415 478 22,200 960 Climbing Albuquerque Center
03:47PM 31.9853 -109.1911 93° East 413 475 23,200 960 Climbing Albuquerque Center
03:48PM 31.9792 -109.0561 93° East 413 475 24,300 960 Climbing Albuquerque Center
03:49PM 31.9711 -108.9192 94° East 416 479 25,300 960 Climbing Albuquerque Center
03:50PM 31.9647 -108.7817 93° East 419 482 26,300 1,080 Climbing Albuquerque Center
03:51PM 31.9564 -108.6161 93° East 422 486 27,600 1,080 Climbing Albuquerque Center
03:52PM 31.9497 -108.4775 93° East 424 488 28,600 960 Climbing Albuquerque Center
03:53PM 31.9419 -108.3378 94° East 425 489 29,600 1,020 Climbing Albuquerque Center
03:54PM 31.9344 -108.2003 94° East 424 488 30,700 960 Climbing Albuquerque Center
03:55PM 31.9267 -108.0622 94° East 424 488 31,700 960 Climbing Albuquerque Center
03:57PM 31.9192 -107.9256 94° East 423 487 32,700 1,080 Climbing Albuquerque Center
03:58PM 31.9097 -107.7600 94° East 423 487 34,000 1,020 Climbing Albuquerque Center
03:59PM 31.9011 -107.6219 94° East 425 489 34,900 480 Climbing Albuquerque Center
04:00PM 31.8933 -107.4836 94° East 426 490 35,000  Climbing Albuquerque Center
04:01PM 31.8861 -107.3372 93° East 444 511 35,000  Level Albuquerque Center
04:02PM 31.8758 -107.1836 94° East 467 537 35,000  Level Albuquerque Center
04:03PM 31.8661 -107.0247 94° East 487 560 35,000  Level Albuquerque Center
04:04PM 31.8533 -106.8303 94° East 500 575 35,000  Level Albuquerque Center
04:05PM 31.8425 -106.6686 94° East 500 575 35,000  Level Albuquerque Center
04:06PM 31.8308 -106.4978 95° East 501 577 35,000  Level Albuquerque Center
04:07PM 31.8208 -106.3344 94° East 501 577 35,000  Level Albuquerque Center
04:08PM 31.7894 -106.1744 103° East 530 610 35,000  Level Albuquerque Center
04:09PM 31.7503 -106.0186 106° East 498 573 35,000  Level Albuquerque Center
04:10PM 31.7108 -105.8619 106° East 500 575 35,000  Level Albuquerque Center
04:11PM 31.6714 -105.7047 106° East 502 578 35,000  Level Albuquerque Center
04:12PM 31.6239 -105.5167 106° East 501 577 35,000  Level Albuquerque Center
04:13PM 31.5847 -105.3586 106° East 502 578 35,000  Level Albuquerque Center
04:14PM 31.5439 -105.2033 107° East 498 573 35,000  Level Albuquerque Center
04:15PM 31.5044 -105.0472 106° East 498 573 35,000  Level Albuquerque Center
04:16PM 31.4647 -104.8881 106° East 499 574 35,000  Level Albuquerque Center
04:17PM 31.4239 -104.7319 107° East 502 578 35,000  Level Albuquerque Center
04:18PM 31.3833 -104.5761 107° East 502 578 35,000  Level Albuquerque Center
04:19PM 31.3431 -104.4239 107° East 497 572 35,000  Level Albuquerque Center
04:20PM 31.2964 -104.2436 107° East 489 563 35,000  Level Albuquerque Center
04:21PM 31.2575 -104.0939 107° East 483 556 35,000  Level Albuquerque Center
04:22PM 31.2167 -103.9397 107° East 491 565 35,000  Level Albuquerque Center
04:23PM 31.1728 -103.7853 108° East 498 573 35,000  Level Albuquerque Center
04:24PM 31.1322 -103.6422 108° East 482 555 35,000  Level Albuquerque Center
04:25PM 31.0906 -103.4894 108° East 489 563 35,000 -60 Level Albuquerque Center
04:26PM 31.0400 -103.3039 108° East 498 573 34,900  Descending Albuquerque Center
04:27PM 30.9992 -103.1511 107° East 498 573 35,000  Climbing Albuquerque Center
04:28PM 30.9581 -103.0006 108° East 492 566 35,000  Level Albuquerque Center
04:29PM 30.9175 -102.8478 107° East 494 568 35,000  Level Albuquerque Center
04:30PM 30.8775 -102.6950 107° East 496 571 35,000  Level Albuquerque Center
04:32PM 30.8306 -102.5128 107° East 496 571 35,000  Level Albuquerque Center
04:33PM 30.7903 -102.3606 107° East 496 571 35,000  Level Albuquerque Center
04:34PM 30.7508 -102.2083 107° East 497 572 35,000  Level Albuquerque Center
04:35PM 30.7103 -102.0558 107° East 497 572 35,000  Level Albuquerque Center
04:36PM 30.6697 -101.9019 107° East 500 575 35,000  Level Albuquerque Center
04:37PM 30.6047 -101.6558 107° East 500 575 35,000  Level Houston Center
04:38PM 30.5667 -101.5147 107° East 501 577 35,000  Level Houston Center
04:39PM 30.5247 -101.3608 108° East 501 577 35,000  Level Houston Center
04:40PM 30.4828 -101.2067 107° East 502 578 35,000  Level Houston Center
04:41PM 30.4342 -101.0211 107° East 503 579 35,000  Level Houston Center
04:42PM 30.3897 -100.8692 109° East 499 574 35,000  Level Houston Center
04:43PM 30.3489 -100.7161 107° East 498 573 35,000  Level Houston Center
04:44PM 30.3067 -100.5642 108° East 495 570 35,000  Level Houston Center
04:45PM 30.2650 -100.4114 107° East 495 570 35,000  Level Houston Center
04:46PM 30.2222 -100.2572 108° East 495 570 35,000  Level Houston Center
04:47PM 30.1792 -100.1006 108° East 498 573 35,000  Level Houston Center
04:48PM 30.1342 -99.9494 109° East 494 568 35,000  Level Houston Center
04:50PM 30.0828 -99.7686 108° East 493 567 35,000  Level Houston Center
04:51PM 30.0394 -99.6189 108° East 492 566 35,000  Level Houston Center
04:52PM 29.9964 -99.4694 108° East 491 565 35,000  Level Houston Center
04:53PM 29.9533 -99.3203 108° East 490 564 35,000  Level Houston Center
04:54PM 29.9089 -99.1725 109° East 489 563 35,000  Level Houston Center
04:55PM 29.8436 -99.0008 114° Southeast 486 559 35,000  Level Houston Center
04:56PM 29.7908 -98.8581 113° Southeast 484 557 35,000  Level Houston Center
04:57PM 29.7344 -98.7050 113° Southeast 483 556 35,000  Level Houston Center
04:58PM 29.6819 -98.5631 113° Southeast 482 555 35,000  Level Houston Center
04:59PM 29.6472 -98.4083 104° East 507 583 35,000  Level Houston Center
05:00PM 29.6481 -98.2381 90° East 496 571 35,000  Level Houston Center
05:01PM 29.6497 -98.0825 89° East 489 563 35,000  Level Houston Center
05:02PM 29.6439 -97.9153 92° East 487 560 35,000  Level Houston Center
05:03PM 29.6358 -97.7708 94° East 486 559 35,000 -480 Level Houston Center
05:04PM 29.6283 -97.6158 93° East 487 560 34,000 -1,800 Descending Houston Center
05:05PM 29.6197 -97.4589 94° East 490 564 31,400 -2,460 Descending Houston Center
05:06PM 29.6111 -97.2989 94° East 499 574 29,000 -2,460 Descending Houston Center
05:07PM 29.6022 -97.1364 94° East 506 582 26,400 -2,940 Descending Houston Center
05:08PM 29.5922 -96.9467 93° East 493 567 23,000 -3,060 Descending Houston Center
05:09PM 29.5833 -96.7967 94° East 469 540 20,100 -2,940 Descending Houston Center
05:10PM 29.5753 -96.6528 94° East 453 521 17,000 -2,700 Descending Houston Center
05:11PM 29.5675 -96.5183 94° East 432 497 14,600 -2,400 Descending Houston Center
05:12PM 29.5636 -96.4528 94° East 407 468 13,500 -1,980 Descending Houston Center
05:12PM 29.5589 -96.3922 95° East 406 467 12,600 -1,860 Descending Houston Center
05:13PM 29.5536 -96.3361 96° East 393 452 11,800 -1,680 Descending Houston Center
05:13PM 29.5508 -96.2708 93° East 385 443 10,900 -1,500 Descending Houston Center
05:14PM 29.5481 -96.2192 94° East 366 421 10,300 -960 Descending Houston Center
05:14PM 29.5511 -96.1614 87° East 343 395 9,900 -360 Descending Houston Center
05:15PM 29.5669 -96.1233 64° Northeast 335 386 10,000  Climbing Houston Center
05:15PM 29.6189 -96.0575 48° Northeast 348 400 9,900  Descending Houston Center
05:16PM 29.6439 -96.0428 27° Northeast 348 400 10,000 -300 Climbing Houston Center
05:16PM 29.7017 -96.0122 25° Northeast 339 390 9,600 -840 Descending Houston Center
05:17PM 29.7242 -96.0000 25° Northeast 296 341 9,200 -1,020 Descending Houston Center
05:17PM 29.7739 -95.9753 23° Northeast 303 349 8,600 -900 Descending Houston Center
05:18PM 29.7906 -95.9658 26° Northeast 274 315 8,400 -780 Descending Houston Center
05:19PM 29.8300 -95.9253 42° Northeast 265 305 7,800 -780 Descending Houston Center
05:19PM 29.8425 -95.9119 43° Northeast 249 287 7,600 -900 Descending Houston Center
05:20PM 29.8694 -95.8608 59° Northeast 253 291 6,900 -900 Descending Houston Center
05:20PM 29.8767 -95.8453 62° Northeast 237 273 6,700 -1,020 Descending Houston Center
05:21PM 29.9008 -95.7956 61° Northeast 239 275 5,900 -1,080 Descending Houston Center
05:21PM 29.9103 -95.7764 60° Northeast 232 267 5,600 -1,260 Descending Houston Center
05:22PM 29.9356 -95.7156 64° Northeast 235 270 4,600 -1,140 Descending Houston Center
05:22PM 29.9378 -95.7081 71° East 237 273 4,500 -780 Descending Houston Center
05:23PM 29.9592 -95.6492 67° East 228 262 3,800 -840 Descending Houston Center
05:23PM 29.9614 -95.6425 69° East 221 254 3,700 -720 Descending Houston Center
05:24PM 29.9822 -95.5836 68° East 222 255 3,100 -660 Descending Houston Center
05:24PM 29.9861 -95.5672 75° East 218 251 3,000 -420 Descending Houston Center
05:25PM 29.9953 -95.5194 77° East 214 246 2,700 -480 Descending Houston Center
05:25PM 29.9911 -95.5064 110° East 203 234 2,600 -900 Descending Houston Center
05:26PM 29.9936 -95.4581 87° East 201 231 1,800 -1,020 Descending Houston Center
05:26PM 29.9922 -95.4483 99° East 175 201 1,600 -780 Descending Houston Center
05:27PM 29.9939 -95.4075 87° East 180 207 1,000 -720 Descending Houston Center
05:27PM 29.9922 -95.4025 111° Southeast 136 157 900 -720 Descending Houston Center
05:28PM 29.9936 -95.3669 87° East 150 173 300 -600 Descending Houston Center